createdAt,value
2022-09-12T00:01:54.815Z,100234.31
2022-09-12T00:04:21.589Z,100243.91
2022-09-12T00:06:48.328Z,100231.53
2022-09-12T00:09:15.260Z,100236.31
2022-09-12T00:11:45.374Z,100242.34
2022-09-12T00:14:15.853Z,100243.91
2022-09-12T00:16:43.516Z,100240.31
2022-09-12T00:19:11.464Z,100235.13
2022-09-12T00:21:39.819Z,100235.53
2022-09-12T00:24:07.312Z,100232.31
2022-09-12T00:26:34.262Z,100234.72
2022-09-12T00:29:03.977Z,100236.31
2022-09-12T00:31:30.678Z,100240.72
2022-09-12T00:34:00.854Z,100248.69
2022-09-12T00:36:29.298Z,100246.69
2022-09-12T00:38:56.501Z,100245.50
2022-09-12T00:41:28.855Z,100243.91
2022-09-12T00:44:04.522Z,100244.69
2022-09-12T00:46:49.597Z,100251.91
2022-09-12T00:49:21.251Z,100247.09
2022-09-12T00:51:53.401Z,100245.50
2022-09-12T00:54:24.695Z,100241.50
2022-09-12T00:56:55.900Z,100247.09
2022-09-12T00:59:31.187Z,100243.91
2022-09-12T01:01:58.257Z,100232.31
2022-09-12T01:04:27.272Z,100238.28
2022-09-12T01:06:58.203Z,100233.13
2022-09-12T01:09:25.771Z,100236.72
2022-09-12T01:11:53.599Z,100238.31
2022-09-12T01:14:20.891Z,100242.72
2022-09-12T01:16:49.998Z,100235.94
2022-09-12T01:19:57.939Z,100238.31
2022-09-12T01:22:33.573Z,100235.13
2022-09-12T01:25:31.140Z,100222.34
2022-09-12T01:28:09.883Z,100220.75
2022-09-12T01:30:52.232Z,100214.34
2022-09-12T01:33:49.195Z,100216.75
2022-09-12T01:36:38.291Z,100217.56
2022-09-12T01:39:35.960Z,100217.56
2022-09-12T01:42:26.909Z,100219.94
2022-09-12T01:45:26.177Z,100212.78
2022-09-12T01:47:52.785Z,100215.16
2022-09-12T01:50:30.183Z,100212.38
2022-09-12T01:53:09.706Z,100220.75
2022-09-12T01:56:22.503Z,100217.56
2022-09-12T01:59:05.245Z,100211.16
2022-09-12T02:01:34.135Z,100217.97
2022-09-12T02:04:15.698Z,100210.38
2022-09-12T02:07:08.787Z,100215.94
2022-09-12T02:10:21.944Z,100215.94
2022-09-12T02:13:03.642Z,100209.59
2022-09-12T02:15:42.982Z,100214.38
2022-09-12T02:18:14.545Z,100221.53
2022-09-12T02:20:50.512Z,100213.97
2022-09-12T02:23:25.553Z,100211.59
2022-09-12T02:26:00.871Z,100206.78
2022-09-12T02:28:37.843Z,100214.34
2022-09-12T02:31:14.387Z,100207.59
2022-09-12T02:33:46.839Z,100218.34
2022-09-12T02:36:26.917Z,100205.97
2022-09-12T02:38:54.710Z,100217.97
2022-09-12T02:41:22.067Z,100223.94
2022-09-12T02:43:50.566Z,100219.97
2022-09-12T02:46:23.331Z,100219.97
2022-09-12T02:48:50.041Z,100221.97
2022-09-12T02:51:21.514Z,100214.75
2022-09-12T02:53:50.656Z,100222.34
2022-09-12T02:56:23.813Z,100213.56
2022-09-12T02:58:50.787Z,100207.97
2022-09-12T03:01:47.149Z,100221.56
2022-09-12T03:04:29.859Z,100210.38
2022-09-12T03:07:21.287Z,100212.38
2022-09-12T03:10:00.085Z,100214.38
2022-09-12T03:12:42.380Z,100199.19
2022-09-12T03:15:21.135Z,100204.78
2022-09-12T03:17:57.251Z,100208.38
2022-09-12T03:20:42.047Z,100208.78
2022-09-12T03:23:41.158Z,100212.78
2022-09-12T03:26:21.356Z,100213.56
2022-09-12T03:28:49.712Z,100216.78
2022-09-12T03:31:19.036Z,100208.78
2022-09-12T03:33:46.174Z,100208.78
2022-09-12T03:36:25.227Z,100208.78
2022-09-12T03:38:52.421Z,100220.78
2022-09-12T03:41:19.747Z,100215.97
2022-09-12T03:43:46.549Z,100232.34
2022-09-12T03:46:13.753Z,100227.97
2022-09-12T03:48:41.500Z,100228.75
2022-09-12T03:51:10.346Z,100232.34
2022-09-12T03:53:37.395Z,100233.13
2022-09-12T03:56:09.162Z,100237.53
2022-09-12T03:58:36.391Z,100234.75
2022-09-12T04:01:17.213Z,100234.31
2022-09-12T04:03:45.699Z,100237.13
2022-09-12T04:06:15.337Z,100240.72
2022-09-12T04:08:44.105Z,100235.13
2022-09-12T04:11:13.013Z,100229.53
2022-09-12T04:13:41.645Z,100241.53
2022-09-12T04:16:09.207Z,100240.72
2022-09-12T04:18:36.353Z,100247.13
2022-09-12T04:21:11.928Z,100244.31
2022-09-12T04:23:38.963Z,100237.53
2022-09-12T04:26:08.872Z,100240.72
2022-09-12T04:28:37.618Z,100235.53
2022-09-12T04:31:23.978Z,100233.53
2022-09-12T04:33:59.128Z,100239.88
2022-09-12T04:36:27.635Z,100251.06
2022-09-12T04:38:54.628Z,100239.88
2022-09-12T04:41:24.115Z,100250.25
2022-09-12T04:43:55.635Z,100243.84
2022-09-12T04:46:22.415Z,100241.84
2022-09-12T04:48:51.340Z,100235.06
2022-09-12T04:51:41.323Z,100235.84
2022-09-12T04:54:19.183Z,100240.63
2022-09-12T04:56:49.018Z,100238.22
2022-09-12T04:59:17.521Z,100240.22
2022-09-12T05:01:44.172Z,100238.22
2022-09-12T05:04:13.084Z,100244.56
2022-09-12T05:06:41.436Z,100243.78
2022-09-12T05:09:11.332Z,100239.78
2022-09-12T05:12:03.365Z,100238.97
2022-09-12T05:14:27.708Z,100249.75
2022-09-12T05:16:56.403Z,100252.53
2022-09-12T05:19:23.653Z,100256.53
2022-09-12T05:21:50.248Z,100250.53
2022-09-12T05:24:17.118Z,100254.50
2022-09-12T05:26:44.908Z,100250.91
2022-09-12T05:29:11.635Z,100255.66
2022-09-12T05:31:39.165Z,100254.09
2022-09-12T05:34:07.104Z,100262.03
2022-09-12T05:36:33.897Z,100263.66
2022-09-12T05:39:01.031Z,100258.88
2022-09-12T05:41:33.908Z,100269.63
2022-09-12T05:44:03.209Z,100269.25
2022-09-12T05:46:32.775Z,100272.03
2022-09-12T05:49:08.404Z,100263.69
2022-09-12T05:51:38.435Z,100261.69
2022-09-12T05:54:07.674Z,100275.63
2022-09-12T05:56:39.377Z,100275.25
2022-09-12T05:59:18.076Z,100284.06
2022-09-12T06:01:45.870Z,100278.88
2022-09-12T06:04:12.501Z,100287.66
2022-09-12T06:06:45.200Z,100270.09
2022-09-12T06:09:13.754Z,100278.88
2022-09-12T06:11:41.403Z,100284.09
2022-09-12T06:14:10.872Z,100284.47
2022-09-12T06:16:38.054Z,100283.28
2022-09-12T06:19:17.462Z,100284.88
2022-09-12T06:21:45.372Z,100286.09
2022-09-12T06:24:12.289Z,100292.47
2022-09-12T06:26:38.917Z,100294.06
2022-09-12T06:29:06.001Z,100302.06
2022-09-12T06:31:35.291Z,100295.69
2022-09-12T06:34:10.611Z,100300.03
2022-09-12T06:36:40.171Z,100301.66
2022-09-12T06:39:12.632Z,100297.25
2022-09-12T06:41:43.537Z,100298.06
2022-09-12T06:44:29.761Z,100299.25
2022-09-12T06:46:56.453Z,100306.47
2022-09-12T06:49:23.099Z,100310.84
2022-09-12T06:51:49.924Z,100307.69
2022-09-12T06:54:20.161Z,100304.50
2022-09-12T06:56:46.890Z,100304.09
2022-09-12T06:59:13.935Z,100312.47
2022-09-12T07:01:41.922Z,100306.88
2022-09-12T07:04:09.221Z,100309.28
2022-09-12T07:06:42.905Z,100315.69
2022-09-12T07:09:12.866Z,100317.25
2022-09-12T07:11:41.483Z,100322.03
2022-09-12T07:14:10.676Z,100328.44
2022-09-12T07:16:38.441Z,100334.03
2022-09-12T07:19:07.508Z,100335.63
2022-09-12T07:21:39.806Z,100334.84
2022-09-12T07:24:09.531Z,100333.25
2022-09-12T07:26:36.345Z,100330.84
2022-09-12T07:29:25.574Z,100325.25
2022-09-12T07:31:50.093Z,100325.25
2022-09-12T07:34:19.666Z,100336.84
2022-09-12T07:36:46.292Z,100328.44
2022-09-12T07:39:12.880Z,100335.22
2022-09-12T07:41:39.674Z,100341.25
2022-09-12T07:44:07.260Z,100326.91
2022-09-12T07:46:33.915Z,100334.09
2022-09-12T07:49:01.436Z,100331.72
2022-09-12T07:51:30.239Z,100340.13
2022-09-12T07:53:57.741Z,100342.16
2022-09-12T07:56:29.878Z,100343.75
2022-09-12T07:58:57.963Z,100344.97
2022-09-12T08:01:25.041Z,100343.38
2022-09-12T08:04:00.270Z,100349.38
2022-09-12T08:06:32.118Z,100346.19
2022-09-12T08:09:00.015Z,100348.56
2022-09-12T08:11:30.461Z,100348.63
2022-09-12T08:14:01.812Z,100338.59
2022-09-12T08:16:31.156Z,100335.84
2022-09-12T08:18:59.896Z,100351.00
2022-09-12T08:21:29.160Z,100348.22
2022-09-12T08:23:59.315Z,100353.81
2022-09-12T08:26:26.474Z,100353.81
2022-09-12T08:28:53.709Z,100351.78
2022-09-12T08:31:25.209Z,100357.00
2022-09-12T08:33:51.957Z,100357.41
2022-09-12T08:36:24.328Z,100353.78
2022-09-12T08:39:00.363Z,100350.19
2022-09-12T08:41:30.487Z,100347.03
2022-09-12T08:44:15.682Z,100356.59
2022-09-12T08:47:09.793Z,100351.81
2022-09-12T08:49:48.408Z,100361.00
2022-09-12T08:52:21.707Z,100359.81
2022-09-12T08:54:50.116Z,100374.19
2022-09-12T08:57:17.522Z,100373.38
2022-09-12T08:59:45.894Z,100373.00
2022-09-12T09:02:37.259Z,100371.00
2022-09-12T09:05:20.411Z,100371.78
2022-09-12T09:07:52.680Z,100380.19
2022-09-12T09:10:33.445Z,100382.19
2022-09-12T09:13:38.546Z,100380.59
2022-09-12T09:16:18.164Z,100377.41
2022-09-12T09:18:47.460Z,100391.00
2022-09-12T09:21:33.595Z,100382.19
2022-09-12T09:24:07.772Z,100388.59
2022-09-12T09:26:44.021Z,100378.16
2022-09-12T09:29:20.814Z,100393.38
2022-09-12T09:31:51.827Z,100386.94
2022-09-12T09:34:24.354Z,100383.34
2022-09-12T09:36:52.835Z,100386.94
2022-09-12T09:39:57.354Z,100386.94
2022-09-12T09:42:46.895Z,100399.72
2022-09-12T09:45:16.909Z,100406.13
2022-09-12T09:47:51.660Z,100393.72
2022-09-12T09:50:19.508Z,100395.63
2022-09-12T09:52:47.449Z,100404.78
2022-09-12T09:55:23.218Z,100399.13
2022-09-12T09:57:50.066Z,100404.31
2022-09-12T10:00:27.296Z,100396.28
2022-09-12T10:03:33.823Z,100405.88
2022-09-12T10:06:06.690Z,100407.50
2022-09-12T10:08:36.658Z,100410.72
2022-09-12T10:11:17.760Z,100416.72
2022-09-12T10:13:50.377Z,100401.13
2022-09-12T10:16:22.676Z,100401.56
2022-09-12T10:18:52.563Z,100399.97
2022-09-12T10:21:29.588Z,100406.81
2022-09-12T10:24:14.366Z,100404.84
2022-09-12T10:26:42.016Z,100413.69
2022-09-12T10:29:16.944Z,100423.28
2022-09-12T10:31:51.475Z,100428.88
2022-09-12T10:34:58.513Z,100432.88
2022-09-12T10:37:33.352Z,100427.69
2022-09-12T10:40:03.406Z,100418.91
2022-09-12T10:42:44.540Z,100432.91
2022-09-12T10:45:35.598Z,100441.72
2022-09-12T10:48:22.747Z,100436.50
2022-09-12T10:50:49.354Z,100434.91
2022-09-12T10:53:35.349Z,100441.31
2022-09-12T10:56:12.878Z,100432.88
2022-09-12T10:59:24.447Z,100429.25
2022-09-12T11:02:35.971Z,100433.25
2022-09-12T11:05:08.848Z,100443.28
2022-09-12T11:07:49.793Z,100444.47
2022-09-12T11:10:22.923Z,100446.47
2022-09-12T11:13:10.552Z,100439.63
2022-09-12T11:16:02.302Z,100445.25
2022-09-12T11:18:51.178Z,100436.03
2022-09-12T11:21:45.227Z,100432.44
2022-09-12T11:24:39.755Z,100441.66
2022-09-12T11:27:09.249Z,100449.31
2022-09-12T11:29:48.594Z,100450.53
2022-09-12T11:32:42.535Z,100458.53
2022-09-12T11:35:28.137Z,100458.97
2022-09-12T11:38:28.574Z,100466.56
2022-09-12T11:41:08.618Z,100459.75
2022-09-12T11:43:48.041Z,100460.97
2022-09-12T11:46:18.149Z,100465.38
2022-09-12T11:49:00.546Z,100454.19
2022-09-12T11:51:33.097Z,100462.59
2022-09-12T11:54:10.772Z,100461.78
2022-09-12T11:56:44.713Z,100466.59
2022-09-12T11:59:34.484Z,100463.81
2022-09-12T12:02:03.776Z,100457.34
2022-09-12T12:04:42.364Z,100451.75
2022-09-12T12:07:11.658Z,100453.75
2022-09-12T12:09:50.523Z,100467.38
2022-09-12T12:12:24.856Z,100459.78
2022-09-12T12:14:54.780Z,100465.00
2022-09-12T12:17:24.456Z,100462.97
2022-09-12T12:20:07.660Z,100463.41
2022-09-12T12:22:35.943Z,100458.97
2022-09-12T12:25:02.580Z,100460.94
2022-09-12T12:27:44.549Z,100464.94
2022-09-12T12:30:29.622Z,100458.16
2022-09-12T12:33:12.978Z,100461.34
2022-09-12T12:35:41.401Z,100468.16
2022-09-12T12:38:38.377Z,100466.94
2022-09-12T12:41:16.887Z,100469.38
2022-09-12T12:43:50.900Z,100478.19
2022-09-12T12:46:28.651Z,100479.00
2022-09-12T12:49:23.383Z,100478.19
2022-09-12T12:52:01.557Z,100482.97
2022-09-12T12:54:29.543Z,100486.16
2022-09-12T12:57:30.974Z,100497.38
2022-09-12T13:00:09.738Z,100487.00
2022-09-12T13:02:41.203Z,100491.41
2022-09-12T13:05:19.952Z,100488.59
2022-09-12T13:07:48.281Z,100499.78
2022-09-12T13:10:24.568Z,100495.00
2022-09-12T13:12:52.649Z,100497.38
2022-09-12T13:15:36.862Z,100495.00
2022-09-12T13:18:11.412Z,100495.78
2022-09-12T13:21:18.082Z,100498.19
2022-09-12T13:23:59.469Z,100506.59
2022-09-12T13:26:43.125Z,100504.59
2022-09-12T13:29:20.649Z,100503.00
2022-09-12T13:31:52.907Z,100506.19
2022-09-12T13:34:23.881Z,100504.59
2022-09-12T13:37:25.339Z,100498.22
2022-09-12T13:40:04.164Z,100500.59
2022-09-12T13:42:49.118Z,100505.00
2022-09-12T13:45:29.711Z,100505.81
2022-09-12T13:48:03.060Z,100508.59
2022-09-12T13:50:40.477Z,100505.81
2022-09-12T13:53:19.583Z,100512.56
2022-09-12T13:55:49.867Z,100512.56
2022-09-12T13:58:21.571Z,100506.97
2022-09-12T14:01:20.624Z,100511.00
2022-09-12T14:04:11.797Z,100518.19
2022-09-12T14:06:46.681Z,100519.78
2022-09-12T14:09:32.602Z,100518.19
2022-09-12T14:11:59.466Z,100520.59
2022-09-12T14:14:36.397Z,100518.19
2022-09-12T14:17:31.686Z,100504.59
2022-09-12T14:20:04.006Z,100506.19
2022-09-12T14:22:32.621Z,100503.78
2022-09-12T14:25:00.377Z,100516.63
2022-09-12T14:27:46.439Z,100517.41
2022-09-12T14:30:31.490Z,100522.22
2022-09-12T14:33:05.919Z,100515.78
2022-09-12T14:35:33.272Z,100520.59
2022-09-12T14:38:12.960Z,100519.81
2022-09-12T14:40:48.740Z,100519.81
2022-09-12T14:43:20.210Z,100515.78
2022-09-12T14:45:55.218Z,100519.00
2022-09-12T14:48:22.437Z,100520.59
2022-09-12T14:50:52.161Z,100529.78
2022-09-12T14:53:18.699Z,100531.72
2022-09-12T14:56:14.555Z,100527.72
2022-09-12T14:58:42.343Z,100531.28
2022-09-12T15:01:09.038Z,100522.09
2022-09-12T15:03:51.914Z,100528.09
2022-09-12T15:06:36.595Z,100528.50
2022-09-12T15:09:08.421Z,100536.13
2022-09-12T15:11:35.045Z,100536.53
2022-09-12T15:14:14.739Z,100534.88
2022-09-12T15:16:41.972Z,100536.09
2022-09-12T15:19:08.555Z,100544.50
2022-09-12T15:21:35.221Z,100542.84
2022-09-12T15:24:02.216Z,100546.03
2022-09-12T15:26:30.634Z,100546.41
2022-09-12T15:28:58.045Z,100544.03
2022-09-12T15:31:26.016Z,100542.84
2022-09-12T15:33:53.263Z,100541.22
2022-09-12T15:36:21.639Z,100545.25
2022-09-12T15:38:48.883Z,100542.84
2022-09-12T15:41:22.081Z,100534.84
2022-09-12T15:43:49.666Z,100530.06
2022-09-12T15:46:18.089Z,100542.06
2022-09-12T15:48:44.944Z,100532.44
2022-09-12T15:51:18.458Z,100541.28
2022-09-12T15:53:46.657Z,100541.66
2022-09-12T15:56:16.021Z,100553.25
2022-09-12T15:58:57.629Z,100538.03
2022-09-12T16:01:26.674Z,100542.81
2022-09-12T16:03:53.385Z,100542.78
2022-09-12T16:06:20.001Z,100540.75
2022-09-12T16:08:46.680Z,100536.78
2022-09-12T16:11:25.069Z,100541.97
2022-09-12T16:13:52.988Z,100536.38
2022-09-12T16:16:19.940Z,100537.59
2022-09-12T16:18:46.865Z,100545.97
2022-09-12T16:21:15.469Z,100543.19
2022-09-12T16:23:43.498Z,100545.97
2022-09-12T16:26:10.276Z,100548.78
2022-09-12T16:28:37.105Z,100543.59
2022-09-12T16:31:08.232Z,100546.03
2022-09-12T16:33:35.157Z,100553.19
2022-09-12T16:36:09.588Z,100553.63
2022-09-12T16:39:02.611Z,100549.63
2022-09-12T16:41:29.300Z,100548.44
2022-09-12T16:43:56.196Z,100560.81
2022-09-12T16:46:26.659Z,100556.81
2022-09-12T16:48:56.006Z,100549.63
2022-09-12T16:51:26.383Z,100550.84
2022-09-12T16:53:54.881Z,100552.41
2022-09-12T16:56:22.254Z,100550.03
2022-09-12T16:58:50.886Z,100553.59
2022-09-12T17:01:20.286Z,100553.19
2022-09-12T17:03:47.522Z,100556.41
2022-09-12T17:06:18.292Z,100551.59
2022-09-12T17:08:48.109Z,100561.97
2022-09-12T17:11:22.792Z,100554.81
2022-09-12T17:14:07.856Z,100552.38
2022-09-12T17:16:37.595Z,100551.56
2022-09-12T17:19:05.064Z,100553.97
2022-09-12T17:21:31.794Z,100555.94
2022-09-12T17:23:59.254Z,100559.91
2022-09-12T17:26:26.968Z,100560.28
2022-09-12T17:28:55.460Z,100568.28
2022-09-12T17:31:22.742Z,100563.09
2022-09-12T17:33:50.714Z,100568.69
2022-09-12T17:36:18.627Z,100570.28
2022-09-12T17:38:46.180Z,100575.47
2022-09-12T17:41:16.091Z,100570.28
2022-09-12T17:43:46.559Z,100574.66
2022-09-12T17:46:14.182Z,100574.22
2022-09-12T17:48:41.686Z,100582.22
2022-09-12T17:51:13.526Z,100583.41
2022-09-12T17:53:41.092Z,100580.59
2022-09-12T17:56:09.076Z,100583.75
2022-09-12T17:58:36.063Z,100586.56
2022-09-12T18:01:31.404Z,100587.75
2022-09-12T18:04:02.977Z,100592.94
2022-09-12T18:06:31.216Z,100593.72
2022-09-12T18:09:06.398Z,100601.69
2022-09-12T18:11:33.384Z,100594.09
2022-09-12T18:14:00.146Z,100600.06
2022-09-12T18:16:28.207Z,100600.84
2022-09-12T18:18:55.514Z,100602.84
2022-09-12T18:21:22.279Z,100604.03
2022-09-12T18:23:48.896Z,100613.63
2022-09-12T18:26:15.640Z,100623.63
2022-09-12T18:28:44.230Z,100618.03
2022-09-12T18:31:19.803Z,100616.03
2022-09-12T18:33:46.846Z,100622.34
2022-09-12T18:36:15.332Z,100615.13
2022-09-12T18:38:42.696Z,100620.69
2022-09-12T18:41:12.363Z,100619.50
2022-09-12T18:43:39.331Z,100632.25
2022-09-12T18:46:14.138Z,100629.03
2022-09-12T18:48:41.236Z,100637.41
2022-09-12T18:51:12.192Z,100629.41
2022-09-12T18:53:39.439Z,100629.00
2022-09-12T18:56:11.475Z,100626.56
2022-09-12T18:58:40.657Z,100631.75
2022-09-12T19:01:15.709Z,100632.50
2022-09-12T19:03:42.545Z,100638.03
2022-09-12T19:06:17.633Z,100638.81
2022-09-12T19:08:45.330Z,100646.72
2022-09-12T19:11:13.204Z,100654.66
2022-09-12T19:13:42.539Z,100645.41
2022-09-12T19:16:12.053Z,100651.75
2022-09-12T19:18:39.891Z,100652.13
2022-09-12T19:21:12.350Z,100659.25
2022-09-12T19:23:39.026Z,100656.78
2022-09-12T19:26:08.498Z,100655.13
2022-09-12T19:28:35.409Z,100656.63
2022-09-12T19:31:07.234Z,100659.31
2022-09-12T19:33:34.475Z,100666.03
2022-09-12T19:36:13.861Z,100680.25
2022-09-12T19:38:48.842Z,100682.22
2022-09-12T19:41:15.580Z,100692.50
2022-09-12T19:43:42.464Z,100693.25
2022-09-12T19:46:16.064Z,100697.91
2022-09-12T19:48:42.740Z,100707.03
2022-09-12T19:51:09.343Z,100711.75
2022-09-12T19:53:36.870Z,100699.75
2022-09-12T19:56:05.263Z,100714.84
2022-09-12T19:58:35.896Z,100711.56
2022-09-12T20:01:14.180Z,100707.09
2022-09-12T20:03:41.733Z,100721.41
2022-09-12T20:06:10.670Z,100715.41
2022-09-12T20:08:40.020Z,100724.53
2022-09-12T20:11:07.757Z,100722.91
2022-09-12T20:13:34.869Z,100718.53
2022-09-12T20:16:09.032Z,100720.13
2022-09-12T20:18:37.210Z,100718.53
2022-09-12T20:21:18.425Z,100722.47
2022-09-12T20:23:46.516Z,100721.31
2022-09-12T20:26:13.817Z,100723.28
2022-09-12T20:28:41.416Z,100718.06
2022-09-12T20:31:12.120Z,100719.22
2022-09-12T20:33:39.493Z,100725.50
2022-09-12T20:36:17.779Z,100719.78
2022-09-12T20:38:49.653Z,100720.53
2022-09-12T20:41:16.890Z,100725.25
2022-09-12T20:43:44.613Z,100727.22
2022-09-12T20:46:12.003Z,100722.84
2022-09-12T20:48:39.730Z,100723.63
2022-09-12T20:51:07.397Z,100731.63
2022-09-12T20:53:35.447Z,100734.41
2022-09-12T20:56:05.371Z,100731.66
2022-09-12T20:58:32.051Z,100739.59
2022-09-12T21:00:59.553Z,100738.44
2022-09-12T21:03:26.247Z,100737.25
2022-09-12T21:05:52.976Z,100734.84
2022-09-12T21:08:19.596Z,100740.81
2022-09-12T21:10:46.202Z,100737.19
2022-09-12T21:13:13.977Z,100730.81
2022-09-12T21:15:41.789Z,100729.66
2022-09-12T21:18:08.671Z,100736.47
2022-09-12T21:20:35.420Z,100740.47
2022-09-12T21:23:02.255Z,100736.50
2022-09-12T21:25:29.697Z,100746.06
2022-09-12T21:27:56.285Z,100750.00
2022-09-12T21:30:23.077Z,100739.59
2022-09-12T21:32:49.721Z,100746.31
2022-09-12T21:35:16.483Z,100753.00
2022-09-12T21:37:43.133Z,100750.53
2022-09-12T21:40:10.206Z,100747.97
2022-09-12T21:42:36.850Z,100762.22
2022-09-12T21:45:03.860Z,100762.84
2022-09-12T21:47:30.550Z,100767.56
2022-09-12T21:49:57.659Z,100764.31
2022-09-12T21:52:24.370Z,100779.28
2022-09-12T21:54:51.007Z,100763.31
2022-09-12T21:57:17.580Z,100763.16
2022-09-12T21:59:44.352Z,100763.13
2022-09-12T22:02:12.432Z,100760.97
2022-09-12T22:04:39.397Z,100761.28
2022-09-12T22:07:06.159Z,100760.41
2022-09-12T22:09:34.461Z,100768.59
2022-09-12T22:12:02.480Z,100779.31
2022-09-12T22:14:29.601Z,100770.81
2022-09-12T22:16:56.927Z,100781.03
2022-09-12T22:19:23.713Z,100779.72
2022-09-12T22:22:09.260Z,100776.44
2022-09-12T22:24:36.232Z,100781.09
2022-09-12T22:27:05.457Z,100774.59
2022-09-12T22:29:32.987Z,100777.66
2022-09-12T22:32:00.665Z,100772.00
2022-09-12T22:34:29.075Z,100788.63
2022-09-12T22:36:56.800Z,100785.38
2022-09-12T22:39:24.156Z,100784.50
2022-09-12T22:41:50.991Z,100788.81
2022-09-12T22:44:17.885Z,100776.44
2022-09-12T22:46:44.971Z,100787.84
2022-09-12T22:49:11.865Z,100788.13
2022-09-12T22:51:39.020Z,100794.38
2022-09-12T22:54:06.292Z,100790.69
2022-09-12T22:56:33.271Z,100797.44
2022-09-12T22:58:59.907Z,100791.06
2022-09-12T23:01:26.710Z,100803.22
2022-09-12T23:03:53.995Z,100801.91
2022-09-12T23:06:21.792Z,100809.81
2022-09-12T23:08:48.492Z,100803.78
2022-09-12T23:11:17.825Z,100804.03
2022-09-12T23:13:46.530Z,100815.09
2022-09-12T23:16:23.061Z,100806.66
2022-09-12T23:18:51.270Z,100816.50
2022-09-12T23:21:20.400Z,100812.47
2022-09-12T23:23:47.029Z,100820.38
2022-09-12T23:26:21.625Z,100821.09
2022-09-12T23:28:54.085Z,100813.09
2022-09-12T23:31:23.462Z,100824.56
2022-09-12T23:33:53.198Z,100822.13
2022-09-12T23:36:20.033Z,100823.22
2022-09-12T23:38:46.777Z,100823.91
2022-09-12T23:41:15.218Z,100810.75
2022-09-12T23:43:43.171Z,100811.91
2022-09-12T23:46:09.858Z,100817.81
2022-09-12T23:48:36.669Z,100803.84
2022-09-12T23:51:03.421Z,100803.75
2022-09-12T23:53:30.073Z,100798.56
2022-09-12T23:55:57.058Z,100793.00
2022-09-12T23:58:23.991Z,100794.88
